| time (UTC) | temp C | wind direction | speed KPH | gust KPH | rain 1hr cm | rain 24hr cm | rain mn cm | humidity % | barometer mb |
| 20260507201543 | 12 | 205 | 1.6 | 8.0 | 0.05 | 1.96 | 1.96 | 98 | 1001.3 |
| 20260507200042 | 12 | 269 | 9.7 | 14.5 | 0.05 | 1.96 | 1.96 | 98 | 1001.2 |
| 20260507194535 | 12 | 288 | 8.0 | 12.9 | 0.15 | 1.93 | 1.93 | 98 | 1001.3 |
| 20260507193039 | 12 | 165 | 0.0 | 16.1 | 0.23 | 1.93 | 1.93 | 98 | 1000.6 |
| 20260507191533 | 12 | 77 | 11.3 | 17.7 | 0.33 | 1.91 | 1.91 | 98 | 1000.3 |
| 20260507190032 | 12 | 123 | 4.8 | 11.3 | 0.41 | 1.91 | 1.91 | 98 | 1001.4 |
| 20260507184533 | 12 | 165 | 8.0 | 12.9 | 0.43 | 1.80 | 1.80 | 98 | 1002.0 |
| 20260507183031 | 12 | 230 | 4.8 | 14.5 | 0.48 | 1.68 | 1.68 | 97 | 1003.0 |
| 20260507181523 | 12 | 173 | 9.7 | 16.1 | 0.66 | 1.57 | 1.57 | 97 | 1002.8 |
| 20260507180039 | 12 | 153 | 6.4 | 12.9 | 0.79 | 1.50 | 1.50 | 98 | 1003.1 |
| 20260507174525 | 12 | 182 | 6.4 | 16.1 | 0.94 | 1.35 | 1.35 | 98 | 1003.5 |
| 20260507173027 | 13 | 171 | 3.2 | 22.5 | 1.09 | 1.19 | 1.19 | 98 | 1003.3 |
| 20260507171520 | 13 | 222 | 6.4 | 16.1 | 0.89 | 0.91 | 0.91 | 98 | 1004.1 |
| 20260507170036 | 13 | 226 | 12.9 | 24.1 | 0.66 | 0.69 | 0.69 | 97 | 1004.2 |
| 20260507164517 | 13 | 238 | 12.9 | 25.7 | 0.36 | 0.36 | 0.36 | 96 | 1004.1 |
| 20260507163015 | 13 | 204 | 17.7 | 37.0 | 0.10 | 0.10 | 0.10 | 96 | 1003.5 |
| 20260507161512 | 13 | 179 | 17.7 | 38.6 | 0.05 | 0.05 | 0.05 | 95 | 1003.4 |
| 20260507160014 | 13 | 195 | 19.3 | 30.6 | 0.03 | 0.03 | 0.03 | 96 | 1003.5 |
| 20260507154510 | 13 | 191 | 14.5 | 33.8 | 0.00 | 0.00 | 0.00 | 95 | 1004.1 |
| 20260507153008 | 13 | 188 | 12.9 | 32.2 | 0.00 | 0.00 | 0.00 | 94 | 1004.6 |
| 20260507151504 | 13 | 206 | 14.5 | 27.4 | 0.00 | 0.00 | 0.00 | 94 | 1005.1 |
| 20260507150004 | 13 | 163 | 14.5 | 37.0 | 0.00 | 0.00 | 0.00 | 94 | 1005.1 |
| 20260507144501 | 13 | 172 | 17.7 | 37.0 | 0.00 | 0.00 | 0.00 | 93 | 1005.7 |
| 20260507143107 | 13 | 217 | 14.5 | 35.4 | 0.00 | 0.00 | 0.00 | 94 | 1006.1 |
| 20260507141559 | 13 | 155 | 16.1 | 33.8 | 0.00 | 0.00 | 0.00 | 94 | 1006.3 |
| 20260507140101 | 13 | 150 | 17.7 | 40.2 | 0.00 | 0.00 | 0.00 | 94 | 1006.5 |
| 20260507134553 | 13 | 154 | 14.5 | 35.4 | 0.00 | 0.00 | 0.00 | 92 | 1006.8 |
| 20260507133051 | 14 | 178 | 14.5 | 38.6 | 0.00 | 0.00 | 0.00 | 91 | 1006.9 |
| 20260507131551 | 14 | 199 | 19.3 | 40.2 | 0.00 | 0.00 | 0.00 | 88 | 1007.1 |
| 20260507130101 | 14 | 193 | 19.3 | 35.4 | 0.00 | 0.00 | 0.00 | 88 | 1007.3 |
| 20260507124552 | 14 | 193 | 20.9 | 40.2 | 0.00 | 0.00 | 0.00 | 89 | 1007.5 |
| 20260507123045 | 14 | 185 | 22.5 | 38.6 | 0.00 | 0.00 | 0.00 | 90 | 1007.7 |
| 20260507121551 | 13 | 186 | 19.3 | 30.6 | 0.00 | 0.00 | 0.00 | 89 | 1007.9 |
| 20260507120043 | 13 | 136 | 16.1 | 38.6 | 0.00 | 0.00 | 0.00 | 89 | 1007.7 |
| 20260507114545 | 14 | 183 | 20.9 | 40.2 | 0.00 | 0.00 | 0.00 | 88 | 1007.9 |
| 20260507113045 | 14 | 177 | 17.7 | 38.6 | 0.00 | 0.00 | 0.00 | 90 | 1007.9 |
| 20260507111537 | 13 | 226 | 19.3 | 30.6 | 0.00 | 0.00 | 0.00 | 91 | 1008.4 |
| 20260507110043 | 13 | 198 | 20.9 | 30.6 | 0.00 | 0.00 | 0.00 | 92 | 1008.5 |
| 20260507104541 | 13 | 165 | 12.9 | 27.4 | 0.00 | 0.00 | 0.00 | 93 | 1008.5 |
| 20260507103048 | 13 | 211 | 14.5 | 30.6 | 0.00 | 0.00 | 0.00 | 93 | 1008.6 |
| 20260507101535 | 13 | 186 | 9.7 | 33.8 | 0.00 | 0.00 | 0.00 | 93 | 1008.7 |
| 20260507100031 | 13 | 238 | 16.1 | 29.0 | 0.00 | 0.00 | 0.00 | 93 | 1008.5 |
| 20260507094531 | 12 | 173 | 16.1 | 30.6 | 0.00 | 0.00 | 0.00 | 94 | 1008.5 |
| 20260507093028 | 12 | 167 | 17.7 | 27.4 | 0.00 | 0.00 | 0.00 | 94 | 1008.9 |
| 20260507091534 | 12 | 148 | 20.9 | 35.4 | 0.00 | 0.00 | 0.00 | 94 | 1009.0 |
| 20260507090027 | 12 | 185 | 16.1 | 25.7 | 0.00 | 0.00 | 0.00 | 92 | 1009.3 |
| 20260507084537 | 12 | 167 | 11.3 | 24.1 | 0.00 | 0.00 | 0.00 | 91 | 1009.0 |
| 20260507083019 | 12 | 167 | 12.9 | 19.3 | 0.00 | 0.00 | 0.00 | 91 | 1009.3 |
| 20260507081516 | 12 | 196 | 12.9 | 24.1 | 0.00 | 0.00 | 0.00 | 90 | 1010.2 |
| 20260507080013 | 11 | 171 | 14.5 | 24.1 | 0.00 | 0.00 | 0.00 | 91 | 1010.3 |
| 20260507074512 | 11 | 185 | 6.4 | 14.5 | 0.00 | 0.00 | 0.00 | 92 | 1010.4 |
| 20260507073012 | 11 | 224 | 8.0 | 14.5 | 0.00 | 0.00 | 0.00 | 92 | 1010.5 |
| 20260507071508 | 11 | 193 | 11.3 | 17.7 | 0.00 | 0.00 | 0.00 | 92 | 1010.6 |
| 20260507070011 | 10 | 200 | 3.2 | 9.7 | 0.00 | 0.00 | 0.00 | 93 | 1010.7 |
| 20260507064505 | 10 | 183 | 8.0 | 17.7 | 0.00 | 0.00 | 0.00 | 92 | 1011.4 |
| 20260507063004 | 10 | 221 | 12.9 | 17.7 | 0.00 | 0.00 | 0.00 | 92 | 1011.9 |
| 20260507061559 | 10 | 204 | 12.9 | 27.4 | 0.00 | 0.00 | 0.00 | 92 | 1012.2 |
| 20260507060105 | 10 | 221 | 14.5 | 22.5 | 0.00 | 0.00 | 0.00 | 92 | 1012.2 |
| 20260507054612 | 10 | 205 | 11.3 | 16.1 | 0.00 | 0.00 | 0.00 | 92 | 1012.3 |
| 20260507053105 | 10 | 214 | 8.0 | 11.3 | 0.00 | 0.00 | 0.00 | 92 | 1012.4 |
| 20260507051555 | 10 | 194 | 6.4 | 16.1 | 0.00 | 0.00 | 0.00 | 92 | 1012.6 |
| 20260507050053 | 10 | 200 | 6.4 | 12.9 | 0.00 | 0.00 | 0.00 | 91 | 1012.9 |
| 20260507044553 | 10 | 196 | 8.0 | 16.1 | 0.00 | 0.00 | 0.00 | 91 | 1013.6 |
| 20260507043042 | 10 | 218 | 8.0 | 14.5 | 0.00 | 0.00 | 0.00 | 91 | 1014.1 |
| 20260507041545 | 10 | 253 | 6.4 | 11.3 | 0.00 | 0.00 | 0.00 | 91 | 1014.4 |
| 20260507040041 | 10 | 194 | 8.0 | 12.9 | 0.00 | 0.00 | 0.00 | 90 | 1014.6 |
| 20260507034536 | 10 | 223 | 6.4 | 16.1 | 0.00 | 0.00 | 0.00 | 90 | 1014.7 |
| 20260507033033 | 11 | 187 | 9.7 | 16.1 | 0.00 | 0.00 | 0.00 | 89 | 1015.0 |
| 20260507031530 | 11 | 173 | 4.8 | 9.7 | 0.00 | 0.00 | 0.00 | 88 | 1015.3 |
| 20260507030026 | 11 | 203 | 9.7 | 17.7 | 0.00 | 0.00 | 0.00 | 87 | 1015.5 |
| 20260507024533 | 11 | 199 | 11.3 | 17.7 | 0.00 | 0.00 | 0.00 | 87 | 1015.5 |
| 20260507023025 | 11 | 223 | 9.7 | 17.7 | 0.00 | 0.00 | 0.00 | 87 | 1015.6 |
| 20260507021530 | 11 | 178 | 12.9 | 22.5 | 0.00 | 0.00 | 0.00 | 86 | 1015.7 |
| 20260507020021 | 11 | 185 | 12.9 | 22.5 | 0.00 | 0.00 | 0.00 | 87 | 1015.8 |
| 20260507014518 | 11 | 187 | 6.4 | 16.1 | 0.00 | 0.00 | 0.00 | 87 | 1015.8 |
| 20260507013015 | 11 | 211 | 9.7 | 19.3 | 0.00 | 0.00 | 0.00 | 86 | 1016.1 |
| 20260507011518 | 12 | 213 | 9.7 | 17.7 | 0.00 | 0.00 | 0.00 | 86 | 1016.3 |
| 20260507010014 | 12 | 219 | 11.3 | 22.5 | 0.00 | 0.00 | 0.00 | 84 | 1016.3 |
| 20260507004507 | 12 | 187 | 9.7 | 19.3 | 0.00 | 0.00 | 0.00 | 84 | 1016.2 |
| 20260507003006 | 13 | 198 | 12.9 | 22.5 | 0.00 | 0.00 | 0.00 | 82 | 1016.1 |
| 20260507001505 | 13 | 208 | 14.5 | 24.1 | 0.00 | 0.00 | 0.00 | 81 | 1016.3 |
| 20260507000007 | 14 | 214 | 9.7 | 22.5 | 0.00 | 0.00 | 0.00 | 80 | 1016.1 |
| 20260506234504 | 14 | 176 | 9.7 | 29.0 | 0.00 | 0.00 | 0.00 | 79 | 1016.0 |
| 20260506233002 | 15 | 205 | 12.9 | 27.4 | 0.00 | 0.00 | 0.00 | 78 | 1016.3 |
| 20260506231602 | 15 | 173 | 14.5 | 22.5 | 0.00 | 0.00 | 0.00 | 77 | 1016.2 |
| 20260506230105 | 16 | 199 | 14.5 | 29.0 | 0.00 | 0.00 | 0.00 | 76 | 1015.8 |
| 20260506224600 | 16 | 223 | 14.5 | 37.0 | 0.00 | 0.00 | 0.00 | 75 | 1015.7 |
| 20260506223104 | 16 | 195 | 12.9 | 25.7 | 0.00 | 0.00 | 0.00 | 74 | 1015.7 |
| 20260506221604 | 17 | 212 | 19.3 | 30.6 | 0.00 | 0.00 | 0.00 | 74 | 1015.4 |
| 20260506220058 | 17 | 185 | 12.9 | 25.7 | 0.00 | 0.00 | 0.00 | 74 | 1015.3 |
| 20260506214600 | 17 | 227 | 22.5 | 43.5 | 0.00 | 0.00 | 0.00 | 74 | 1015.1 |
| 20260506213100 | 17 | 167 | 14.5 | 27.4 | 0.00 | 0.00 | 0.00 | 73 | 1015.1 |
| 20260506211557 | 17 | 217 | 22.5 | 40.2 | 0.00 | 0.00 | 0.00 | 72 | 1015.3 |
| 20260506210055 | 18 | 195 | 25.7 | 48.3 | 0.00 | 0.00 | 0.00 | 72 | 1015.3 |
| 20260506204556 | 18 | 182 | 19.3 | 41.8 | 0.00 | 0.00 | 0.00 | 68 | 1015.0 |
| 20260506203054 | 18 | 225 | 19.3 | 40.2 | 0.00 | 0.00 | 0.00 | 70 | 1015.0 |